This is the latest recevied weather packets stored in our database for station/object LY3PGO-4. If no packets are shown the sender has not sent any weather packets the latest 1 day(s).
| Time | Temp. | Humidity | Pressure | Rain* | Wind** | Luminosity | Snow |
|---|---|---|---|---|---|---|---|
| 1778017822 | 10.56° C | 90% | 1008.9 hPa | 0.25 mm | 0 m/s | - | - |
| 1778017217 | 10.56° C | 89% | 1009 hPa | 0.25 mm | 0 m/s | - | - |
| 1778016610 | 10.56° C | 89% | 1009.4 hPa | 0.25 mm | 0.45 m/s, 247° | - | - |
| 1778016005 | 10.56° C | 88% | 1009.1 hPa | 0 mm | 0 m/s | - | - |
| 1778015401 | 10.56° C | 88% | 1008.4 hPa | 0 mm | 0 m/s | - | - |
| 1778014792 | 10.56° C | 87% | 1008.6 hPa | 0 mm | 0.45 m/s, 180° | - | - |
| 1778014186 | 11.11° C | 87% | 1008.5 hPa | 0 mm | 0 m/s | - | - |
| 1778013579 | 11.11° C | 85% | 1008.4 hPa | 0 mm | 0.89 m/s, 135° | - | - |
| 1778012974 | 11.67° C | 83% | 1008.3 hPa | 0 mm | 0.45 m/s, 135° | - | - |
| 1778012372 | 12.22° C | 79% | 1009 hPa | 0 mm | 0 m/s | - | - |
| 1778011762 | 12.22° C | 77% | 1008.1 hPa | 0 mm | 0.89 m/s, 157° | - | - |
| 1778011155 | 12.78° C | 76% | 1008.8 hPa | 0 mm | 0 m/s | - | - |
| 1778010548 | 13.33° C | 72% | 1008.6 hPa | 0 mm | 0 m/s | - | - |
| 1778009942 | 13.33° C | 71% | 1008.8 hPa | 0 mm | 0.89 m/s, 247° | - | - |
| 1778009338 | 13.89° C | 67% | 1008.5 hPa | 0 mm | 0.89 m/s, 157° | - | - |
| 1778008731 | 13.89° C | 66% | 1008.1 hPa | 0 mm | 0.45 m/s, 337° | - | - |
| 1778008124 | 13.89° C | 70% | 1008.4 hPa | 0 mm | 0.45 m/s, 180° | - | - |
| 1778007517 | 15° C | 65% | 1008.7 hPa | 0 mm | 1.79 m/s, 247° | - | - |
| 1778006911 | 15.56° C | 57% | 1007.9 hPa | 0 mm | 0.89 m/s, 202° | - | - |
| 1778006309 | 15.56° C | 56% | 1007.6 hPa | 0 mm | 0.89 m/s, 202° | - | - |
| 1778005699 | 16.11° C | 55% | 1007.5 hPa | 0 mm | 0.89 m/s, 180° | - | - |
| 1778005092 | 16.11° C | 54% | 1007.4 hPa | 0 mm | 0.45 m/s, 157° | - | - |
| 1778004486 | 16.11° C | 54% | 1007.4 hPa | 0 mm | 0.89 m/s, 157° | - | - |
| 1778003880 | 16.67° C | 54% | 1007.4 hPa | 0 mm | 0.89 m/s, 225° | - | - |
| 1778003278 | 16.67° C | 54% | 1007.5 hPa | 0 mm | 0 m/s | - | - |
* Rain latest hour (hover to see other rain measurements)
** Current wind speed in m/s (hover to see current wind gust speed)